Time;durP1;ratioP1;P1;durP2;ratioP2;P2;SDS_P1;SDS_P2;PMS_P1;PMS_P2;Temp;Humidity;BMP_temperature;BMP_pressure;BME280_temperature;BME280_humidity;BME280_pressure;Samples;Min_cycle;Max_cycle;Signal;HPM_P1;HPM_P2
2022/11/08 00:02:18;;;;;;;25.20;8.82;;;;;;;10.77;100.00;100429.50;4965417;28;20070;-76
2022/11/08 00:04:43;;;;;;;18.80;8.73;;;;;;;10.74;100.00;100435.16;4935487;28;20110;-76
2022/11/08 00:15:22;;;;;;;28.30;10.68;;;;;;;10.76;100.00;100439.31;4973577;28;20162;-76
2022/11/08 00:17:47;;;;;;;23.30;11.53;;;;;;;10.72;100.00;100431.81;4947464;29;20455;-77
2022/11/08 00:20:13;;;;;;;23.03;10.83;;;;;;;10.72;100.00;100426.47;4946366;28;20031;-76
2022/11/08 00:22:38;;;;;;;24.67;10.60;;;;;;;10.70;100.00;100425.81;4943596;29;20031;-78
2022/11/08 00:25:04;;;;;;;22.47;11.83;;;;;;;10.75;100.00;100439.50;4962573;28;20039;-78
2022/11/08 00:27:29;;;;;;;23.70;9.43;;;;;;;10.76;100.00;100436.66;4946404;28;20078;-77
2022/11/08 00:29:55;;;;;;;26.17;11.93;;;;;;;10.72;100.00;100439.81;4942441;29;20082;-77
2022/11/08 00:32:23;;;;;;;39.13;13.67;;;;;;;10.75;100.00;100434.16;4944967;29;20297;-78
2022/11/08 00:34:49;;;;;;;26.45;10.55;;;;;;;10.74;100.00;100430.63;4947481;28;20377;-77
2022/11/08 00:37:16;;;;;;;22.60;10.13;;;;;;;10.76;100.00;100433.16;4945881;29;20027;-77
2022/11/08 00:39:41;;;;;;;30.58;11.50;;;;;;;10.78;100.00;100425.81;4958474;28;20306;-76
2022/11/08 00:42:06;;;;;;;23.80;11.10;;;;;;;10.79;100.00;100427.47;4947068;28;20129;-76
2022/11/08 00:44:32;;;;;;;22.03;9.17;;;;;;;10.78;100.00;100425.81;4941819;28;20043;-74
2022/11/08 00:46:57;;;;;;;32.53;11.23;;;;;;;10.81;100.00;100420.13;4941980;29;20286;-75
2022/11/08 00:49:23;;;;;;;20.93;8.63;;;;;;;10.83;100.00;100417.28;4941564;29;20417;-76
2022/11/08 00:51:48;;;;;;;25.70;8.53;;;;;;;10.83;100.00;100422.63;4961629;28;20107;-76
2022/11/08 00:54:15;;;;;;;;;;;;;;;10.85;100.00;100420.63;4947360;28;20040;-76
2022/11/08 00:56:42;;;;;;;20.63;7.13;;;;;;;10.88;100.00;100415.75;4945248;29;19918;-76
2022/11/08 00:59:11;;;;;;;18.27;8.02;;;;;;;10.86;100.00;100411.59;4946975;28;20031;-75
2022/11/08 01:01:36;;;;;;;16.75;7.30;;;;;;;10.89;100.00;100414.75;4946330;28;20702;-75
2022/11/08 01:04:02;;;;;;;14.83;6.10;;;;;;;10.91;100.00;100415.41;4965814;23;20142;-76
2022/11/08 01:06:27;;;;;;;15.90;6.83;;;;;;;10.92;100.00;100408.25;4965946;28;20476;-74
2022/11/08 01:08:54;;;;;;;19.47;7.47;;;;;;;10.93;100.00;100397.38;4965901;28;20038;-74
2022/11/08 01:11:22;;;;;;;17.40;6.15;;;;;;;10.92;100.00;100401.06;4965992;28;20034;-74
2022/11/08 01:13:48;;;;;;;19.90;7.35;;;;;;;11.00;100.00;100400.19;4964166;28;20122;-74
2022/11/08 01:16:19;;;;;;;21.90;6.45;;;;;;;11.00;100.00;100397.50;4960313;28;20018;-73
2022/11/08 01:18:46;;;;;;;31.77;7.00;;;;;;;11.00;100.00;100402.84;4965670;28;20514;-74
2022/11/08 01:21:12;;;;;;;18.15;6.15;;;;;;;10.98;100.00;100395.03;4965877;28;20071;-74
2022/11/08 01:23:39;;;;;;;19.10;5.72;;;;;;;11.01;100.00;100404.53;4967774;28;20038;-74
2022/11/08 01:26:07;;;;;;;18.95;5.90;;;;;;;10.97;100.00;100396.00;4965609;28;20034;-74
2022/11/08 01:28:33;;;;;;;20.70;6.85;;;;;;;10.99;100.00;100396.69;4965540;28;20558;-74
2022/11/08 01:31:04;;;;;;;13.35;5.35;;;;;;;10.96;100.00;100391.69;4966008;28;20115;-74
2022/11/08 01:33:30;;;;;;;15.27;5.20;;;;;;;10.96;100.00;100386.34;4980768;28;20491;-74
2022/11/08 01:35:55;;;;;;;13.77;5.68;;;;;;;10.94;100.00;100387.53;4948403;28;20030;-74
2022/11/08 01:38:21;;;;;;;13.43;4.97;;;;;;;10.95;100.00;100382.00;4965776;28;20576;-74
2022/11/08 01:40:47;;;;;;;15.53;5.53;;;;;;;11.04;100.00;100379.31;4965890;28;20541;-74
2022/11/08 01:43:28;;;;;;;11.82;4.80;;;;;;;11.01;100.00;100375.16;4965943;28;20317;-74
2022/11/08 01:46:09;;;;;;;18.48;5.68;;;;;;;10.97;100.00;100371.97;4965642;28;20472;-74
2022/11/08 01:48:37;;;;;;;11.98;5.57;;;;;;;10.94;100.00;100366.16;4965372;28;20045;-74
2022/11/08 01:51:07;;;;;;;21.98;6.05;;;;;;;10.92;100.00;100360.16;4965479;28;20350;-74
2022/11/08 01:53:32;;;;;;;15.85;5.45;;;;;;;10.86;100.00;100356.31;4965587;28;20142;-74
2022/11/08 01:55:58;;;;;;;17.97;5.50;;;;;;;10.87;100.00;100365.19;4966334;28;20102;-74
2022/11/08 01:58:29;;;;;;;14.48;5.43;;;;;;;10.86;100.00;100368.84;4971085;28;20026;-74
2022/11/08 02:00:56;;;;;;;12.40;4.93;;;;;;;10.80;100.00;100354.38;4971269;28;20042;-74
2022/11/08 02:03:21;;;;;;;11.07;4.00;;;;;;;10.83;100.00;100353.19;4969073;28;20048;-74
2022/11/08 02:05:47;;;;;;;21.35;5.60;;;;;;;10.83;100.00;100362.03;4968554;28;20042;-74
2022/11/08 02:08:21;;;;;;;17.10;5.50;;;;;;;10.81;100.00;100356.03;4964493;28;20023;-74
2022/11/08 02:10:50;;;;;;;12.70;4.60;;;;;;;10.88;100.00;100356.16;4966380;28;20030;-74
2022/11/08 02:13:19;;;;;;;15.55;4.75;;;;;;;10.92;100.00;100347.63;4951531;28;20027;-74
2022/11/08 02:15:45;;;;;;;13.55;4.95;;;;;;;10.89;100.00;100342.66;4967320;28;20126;-74
2022/11/08 02:18:13;;;;;;;14.75;4.95;;;;;;;10.91;100.00;100348.66;4983629;28;20121;-74
2022/11/08 02:20:46;;;;;;;17.15;5.10;;;;;;;10.90;100.00;100344.28;4967534;28;20027;-74
2022/11/08 02:23:55;;;;;;;12.55;4.85;;;;;;;10.93;100.00;100343.97;4961808;28;20027;-73
2022/11/08 02:26:27;;;;;;;10.18;3.55;;;;;;;10.98;100.00;100352.28;4976391;28;20049;-74
2022/11/08 02:28:52;;;;;;;18.38;4.82;;;;;;;11.02;100.00;100343.91;4968227;28;20472;-74
2022/11/08 02:31:19;;;;;;;11.82;3.75;;;;;;;11.06;100.00;100339.91;4968683;28;20077;-74
2022/11/08 02:33:45;;;;;;;16.83;5.30;;;;;;;11.02;100.00;100326.03;4983279;28;20129;-74
2022/11/08 02:36:12;;;;;;;;;;;;;;;11.04;100.00;100329.38;4976670;28;20070;-74
2022/11/08 02:38:41;;;;;;;15.13;4.75;;;;;;;11.03;100.00;100332.22;4968110;28;20004;-74
2022/11/08 02:41:07;;;;;;;16.83;4.82;;;;;;;11.05;100.00;100316.84;4970372;28;20449;-74
2022/11/08 02:43:32;;;;;;;15.52;4.20;;;;;;;11.03;100.00;100327.72;4951171;28;20039;-74
2022/11/08 02:45:58;;;;;;;10.40;4.30;;;;;;;11.05;100.00;100314.16;4983371;28;20365;-74
2022/11/08 02:48:24;;;;;;;11.75;5.03;;;;;;;11.02;100.00;100311.84;4967009;28;20109;-74
2022/11/08 02:50:50;;;;;;;17.02;5.18;;;;;;;10.98;100.00;100319.41;4950866;28;20033;-74
2022/11/08 02:53:16;;;;;;;8.45;3.72;;;;;;;10.96;100.00;100318.75;4970358;28;20042;-74
2022/11/08 02:55:41;;;;;;;8.02;3.13;;;;;;;10.97;100.00;100315.88;4953710;28;20045;-74
2022/11/08 02:58:07;;;;;;;11.00;3.75;;;;;;;10.94;100.00;100324.25;4968426;28;20065;-73
2022/11/08 03:00:33;;;;;;;9.50;3.25;;;;;;;10.92;100.00;100320.09;4966849;28;20038;-74
2022/11/08 03:02:59;;;;;;;11.82;3.65;;;;;;;10.86;100.00;100318.94;4966897;28;20019;-74
2022/11/08 03:05:26;;;;;;;12.95;3.97;;;;;;;10.84;100.00;100320.13;4967806;28;20038;-73
2022/11/08 03:07:52;;;;;;;11.30;3.60;;;;;;;10.81;100.00;100325.81;4967402;28;20045;-74
2022/11/08 03:10:19;;;;;;;12.30;4.15;;;;;;;10.81;100.00;100320.47;4966321;28;20038;-73
2022/11/08 03:12:45;;;;;;;15.15;3.90;;;;;;;10.76;100.00;100319.16;4967700;28;20035;-73
2022/11/08 03:15:13;;;;;;;14.33;4.03;;;;;;;10.77;100.00;100317.34;4966367;28;20025;-74
2022/11/08 03:17:39;;;;;;;5.90;3.60;;;;;;;10.78;100.00;100313.66;4967830;28;20038;-74
2022/11/08 03:20:05;;;;;;;12.25;3.97;;;;;;;10.81;100.00;100321.31;4967811;28;20057;-73
2022/11/08 03:22:31;;;;;;;21.02;5.43;;;;;;;10.76;100.00;100316.50;4967882;28;20035;-73
2022/11/08 03:24:56;;;;;;;10.60;4.03;;;;;;;10.70;100.00;100300.31;4961181;28;20027;-73
2022/11/08 03:27:22;;;;;;;14.83;3.63;;;;;;;10.73;100.00;100316.03;4966583;28;20053;-73
2022/11/08 03:29:47;;;;;;;12.88;4.20;;;;;;;10.62;100.00;100314.56;4967750;28;20378;-73
2022/11/08 03:32:14;;;;;;;16.27;4.43;;;;;;;10.67;100.00;100314.03;4982569;28;20465;-73
2022/11/08 03:34:39;;;;;;;14.60;4.07;;;;;;;10.67;100.00;100311.38;4966209;28;20050;-73
2022/11/08 03:37:06;;;;;;;15.85;3.85;;;;;;;10.62;100.00;100313.72;4967607;28;20026;-73
2022/11/08 03:39:31;;;;;;;15.35;4.00;;;;;;;10.64;100.00;100312.53;4967767;28;20673;-73
2022/11/08 03:42:01;;;;;;;13.87;3.63;;;;;;;10.61;100.00;100307.56;4967793;28;20145;-73
2022/11/08 03:44:30;;;;;;;12.05;4.18;;;;;;;10.58;100.00;100318.56;4968077;28;20514;-73
2022/11/08 03:46:56;;;;;;;10.73;3.55;;;;;;;10.58;100.00;100313.22;4967004;28;20031;-73
2022/11/08 03:49:21;;;;;;;15.20;3.50;;;;;;;10.66;100.00;100309.72;4981714;28;20609;-74
2022/11/08 03:51:47;;;;;;;14.67;3.27;;;;;;;10.63;100.00;100307.38;4965762;28;20128;-73
2022/11/08 03:54:13;;;;;;;25.23;5.20;;;;;;;10.65;100.00;100316.03;4967047;28;20038;-73
2022/11/08 03:56:38;;;;;;;13.93;3.67;;;;;;;10.63;100.00;100318.03;4965455;28;20037;-73
2022/11/08 03:59:04;;;;;;;10.57;4.63;;;;;;;10.67;100.00;100317.53;4967147;28;20039;-73
2022/11/08 04:01:29;;;;;;;14.63;3.80;;;;;;;10.68;100.00;100307.72;4967179;28;20042;-73
2022/11/08 04:03:55;;;;;;;7.90;3.40;;;;;;;10.67;100.00;100300.69;4966728;28;20770;-73
2022/11/08 04:06:20;;;;;;;10.00;4.07;;;;;;;10.70;100.00;100311.00;4981699;28;20487;-73
2022/11/08 04:08:45;;;;;;;15.50;3.83;;;;;;;10.74;100.00;100310.47;4965594;28;20727;-74
2022/11/08 04:16:39;;;;;;;10.95;3.40;;;;;;;10.78;100.00;100305.66;4960194;28;20042;-73
2022/11/08 04:21:51;;;;;;;9.68;2.83;;;;;;;10.80;100.00;100300.13;4967007;28;20405;-73
2022/11/08 04:24:16;;;;;;;11.30;3.35;;;;;;;10.84;100.00;100312.97;4966787;28;20514;-73
2022/11/08 04:26:42;;;;;;;12.77;3.73;;;;;;;10.80;100.00;100300.97;4964867;28;20026;-73
2022/11/08 04:29:08;;;;;;;11.40;2.73;;;;;;;10.80;100.00;100302.81;4981298;28;20039;-73
2022/11/08 04:31:34;;;;;;;10.90;3.38;;;;;;;10.76;100.00;100294.31;4966419;28;20027;-73
2022/11/08 04:33:59;;;;;;;5.95;2.40;;;;;;;10.69;100.00;100286.16;4967347;28;20132;-73
2022/11/08 04:36:25;;;;;;;13.00;3.17;;;;;;;10.68;100.00;100291.69;4966338;28;20480;-73
2022/11/08 04:38:51;;;;;;;10.98;3.90;;;;;;;10.69;100.00;100290.66;4981009;28;20046;-73
2022/11/08 04:41:19;;;;;;;11.60;3.45;;;;;;;10.72;100.00;100303.66;4965157;28;20019;-73
2022/11/08 04:43:45;;;;;;;15.50;3.58;;;;;;;10.70;100.00;100295.00;4966315;28;20038;-73
2022/11/08 04:46:14;;;;;;;12.68;3.47;;;;;;;10.69;100.00;100291.50;4981527;28;20035;-73
2022/11/08 04:48:40;;;;;;;11.82;3.33;;;;;;;10.65;100.00;100292.88;4965557;28;20031;-73
2022/11/08 04:51:14;;;;;;;8.68;2.40;;;;;;;10.59;100.00;100293.56;4981268;28;20042;-73
2022/11/08 04:53:40;;;;;;;11.52;3.00;;;;;;;10.60;100.00;100289.03;4964962;28;20043;-73
2022/11/08 04:56:08;;;;;;;5.47;2.53;;;;;;;10.63;100.00;100294.88;4951922;28;20037;-73
2022/11/08 04:58:36;;;;;;;9.98;3.00;;;;;;;10.61;100.00;100296.88;4980862;28;20518;-73
2022/11/08 05:01:03;;;;;;;5.15;2.90;;;;;;;10.61;100.00;100299.56;4965101;28;20031;-73
2022/11/08 05:03:30;;;;;;;11.80;3.53;;;;;;;10.60;100.00;100294.38;4966014;28;20493;-73
2022/11/08 05:05:58;;;;;;;11.45;3.50;;;;;;;10.63;100.00;100291.34;4965912;28;20022;-73
2022/11/08 05:08:23;;;;;;;6.47;3.05;;;;;;;10.64;100.00;100298.38;4980489;28;20049;-73
2022/11/08 05:10:49;;;;;;;12.40;2.50;;;;;;;10.51;100.00;100288.22;4963173;28;20042;-73
2022/11/08 05:13:14;;;;;;;9.80;2.50;;;;;;;10.53;100.00;100287.06;4981213;28;20049;-72
2022/11/08 05:15:40;;;;;;;7.37;2.60;;;;;;;10.46;100.00;100286.09;4980640;28;20042;-73
2022/11/08 05:18:05;;;;;;;10.47;3.37;;;;;;;10.43;100.00;100278.44;4967920;28;20031;-73
2022/11/08 05:23:23;;;;;;;9.85;2.50;;;;;;;10.37;100.00;100280.94;4966498;28;20039;-73
2022/11/08 05:25:49;;;;;;;15.88;3.63;;;;;;;10.40;100.00;100289.47;4966169;28;20739;-73
2022/11/08 05:28:15;;;;;;;10.48;3.10;;;;;;;10.40;100.00;100285.97;4968448;28;20267;-73
2022/11/08 05:30:40;;;;;;;15.63;3.15;;;;;;;10.32;100.00;100287.66;4968319;28;20101;-73
2022/11/08 05:33:06;;;;;;;9.10;3.20;;;;;;;10.30;100.00;100284.34;4972069;28;20166;-75
2022/11/08 05:35:34;;;;;;;18.73;3.97;;;;;;;10.32;100.00;100294.81;4968686;28;20039;-73
2022/11/08 05:38:00;;;;;;;5.00;2.35;;;;;;;10.37;100.00;100295.13;4965358;28;20039;-73
2022/11/08 05:40:25;;;;;;;7.33;2.63;;;;;;;10.34;100.00;100292.81;4968864;28;20089;-72
2022/11/08 05:42:54;;;;;;;7.40;2.90;;;;;;;10.32;100.00;100298.34;4968895;28;20105;-73
2022/11/08 05:45:20;;;;;;;10.90;2.70;;;;;;;10.44;100.00;100295.28;4969646;28;20034;-73
2022/11/08 05:47:46;;;;;;;17.35;4.15;;;;;;;10.41;100.00;100296.44;4984181;28;20035;-73
2022/11/08 05:50:12;;;;;;;17.35;3.92;;;;;;;10.44;100.00;100293.47;4969563;28;20100;-72
2022/11/08 05:52:37;;;;;;;18.08;3.13;;;;;;;10.31;100.00;100283.31;4984497;28;20467;-72
2022/11/08 05:55:03;;;;;;;16.93;3.97;;;;;;;10.34;100.00;100295.47;4964544;28;20015;-73
2022/11/08 05:57:28;;;;;;;8.35;3.13;;;;;;;10.38;100.00;100296.81;4969227;28;20050;-73
2022/11/08 05:59:53;;;;;;;11.07;3.10;;;;;;;10.35;100.00;100295.31;4984577;28;20126;-73
2022/11/08 06:02:19;;;;;;;7.83;2.53;;;;;;;10.40;100.00;100299.31;4969406;28;20400;-72
2022/11/08 06:04:44;;;;;;;13.60;3.20;;;;;;;10.45;100.00;100289.78;4984247;28;20113;-72
2022/11/08 06:07:09;;;;;;;12.60;3.73;;;;;;;10.46;100.00;100290.59;4967623;28;20077;-73
2022/11/08 06:09:35;;;;;;;10.93;3.47;;;;;;;10.46;100.00;100294.09;4969636;28;20132;-72
2022/11/08 06:12:00;;;;;;;8.97;3.00;;;;;;;10.42;100.00;100294.59;4969227;28;20066;-73
2022/11/08 06:14:26;;;;;;;8.07;3.00;;;;;;;10.37;100.00;100286.28;4969020;28;20058;-72
2022/11/08 06:16:51;;;;;;;9.30;4.13;;;;;;;10.34;100.00;100300.81;4970562;28;20302;-73
2022/11/08 06:19:16;;;;;;;13.43;4.03;;;;;;;10.39;100.00;100306.47;4968039;28;20076;-73
2022/11/08 06:21:42;;;;;;;10.10;3.03;;;;;;;10.30;100.00;100294.16;4971175;28;20042;-73
2022/11/08 06:24:07;;;;;;;10.27;3.20;;;;;;;10.37;100.00;100300.47;4968784;28;20031;-73
2022/11/08 06:26:33;;;;;;;11.82;3.42;;;;;;;10.29;100.00;100296.00;4983454;28;20488;-73
2022/11/08 06:28:59;;;;;;;5.37;2.37;;;;;;;10.26;100.00;100300.81;4968620;28;20050;-73
2022/11/08 06:31:25;;;;;;;9.98;2.97;;;;;;;10.19;100.00;100295.34;4983322;28;20053;-73
2022/11/08 06:33:50;;;;;;;6.07;2.90;;;;;;;10.03;100.00;100295.38;4966858;28;20042;-73
2022/11/08 06:36:15;;;;;;;16.17;3.60;;;;;;;9.98;100.00;100303.06;4968244;28;20735;-73
2022/11/08 06:38:41;;;;;;;12.73;3.27;;;;;;;9.93;100.00;100307.06;4983018;28;20942;-73
2022/11/08 06:41:06;;;;;;;11.53;3.70;;;;;;;9.85;100.00;100301.72;4967358;28;20373;-72
2022/11/08 06:43:31;;;;;;;12.13;3.60;;;;;;;9.78;100.00;100316.72;4982610;28;20049;-72
2022/11/08 06:46:01;;;;;;;8.53;3.20;;;;;;;9.72;100.00;100307.56;4968227;28;20039;-72
2022/11/08 06:48:26;;;;;;;10.25;3.58;;;;;;;9.65;100.00;100311.91;4967086;28;20847;-72
2022/11/08 06:50:51;;;;;;;11.70;3.80;;;;;;;9.66;100.00;100332.22;4968539;28;20066;-72
2022/11/08 06:53:17;;;;;;;8.17;3.13;;;;;;;9.72;100.00;100330.75;4967557;28;20031;-72
2022/11/08 06:55:42;;;;;;;10.60;3.73;;;;;;;9.60;100.00;100330.25;4982399;28;20041;-72
2022/11/08 06:58:09;;;;;;;13.70;3.37;;;;;;;9.56;100.00;100328.06;4970151;28;20133;-72
2022/11/08 07:00:34;;;;;;;17.38;5.20;;;;;;;9.53;100.00;100339.91;4982853;28;20125;-72
2022/11/08 07:03:02;;;;;;;11.77;3.80;;;;;;;9.54;100.00;100341.56;4968986;28;20468;-72
2022/11/08 07:05:29;;;;;;;10.30;3.85;;;;;;;9.61;100.00;100342.56;4994197;23;20507;-77
2022/11/08 07:07:58;;;;;;;12.82;3.83;;;;;;;9.63;100.00;100343.22;4987585;28;20042;-77
2022/11/08 07:10:26;;;;;;;11.63;3.30;;;;;;;9.73;100.00;100341.22;4987152;28;20152;-77
2022/11/08 07:13:03;;;;;;;10.85;3.47;;;;;;;9.80;100.00;100340.56;5013852;28;20522;-79
2022/11/08 07:15:29;;;;;;;11.48;4.47;;;;;;;9.91;100.00;100337.56;4983550;28;20042;-76
2022/11/08 07:18:01;;;;;;;8.25;2.80;;;;;;;10.00;100.00;100325.88;4981972;28;20039;-76
2022/11/08 07:20:27;;;;;;;7.07;3.00;;;;;;;10.11;100.00;100314.00;4983912;28;20077;-77
2022/11/08 07:22:54;;;;;;;8.05;3.30;;;;;;;10.02;100.00;100301.69;4982114;28;20395;-76
2022/11/08 07:25:19;;;;;;;8.55;3.28;;;;;;;10.15;100.00;100308.16;4983261;28;20332;-77
2022/11/08 07:27:45;;;;;;;9.57;3.05;;;;;;;10.23;100.00;100296.66;4982427;28;20156;-77
2022/11/08 07:30:11;;;;;;;13.37;4.23;;;;;;;10.11;100.00;100284.66;4966419;28;20030;-77
2022/11/08 07:32:36;;;;;;;12.73;3.10;;;;;;;10.11;100.00;100284.66;4983515;28;20034;-78
2022/11/08 07:35:02;;;;;;;9.97;3.73;;;;;;;10.01;100.00;100278.69;4979890;28;20065;-78
2022/11/08 07:37:27;;;;;;;8.20;3.20;;;;;;;10.06;100.00;100295.84;4975684;28;20117;-77
2022/11/08 07:39:52;;;;;;;9.00;3.87;;;;;;;10.06;100.00;100293.19;4985177;28;20034;-76
2022/11/08 07:42:18;;;;;;;8.93;3.47;;;;;;;10.08;100.00;100291.19;4982306;28;20570;-76
2022/11/08 07:44:47;;;;;;;15.27;4.07;;;;;;;10.18;100.00;100290.16;4964881;28;20030;-77
2022/11/08 07:47:13;;;;;;;16.13;3.87;;;;;;;10.16;100.00;100282.34;4981940;28;20036;-77
2022/11/08 07:49:38;;;;;;;8.83;3.67;;;;;;;10.21;100.00;100269.31;4981932;28;20505;-77
2022/11/08 07:52:04;;;;;;;9.40;3.20;;;;;;;10.25;100.00;100265.28;4982149;28;20483;-76
2022/11/08 07:54:29;;;;;;;10.13;3.57;;;;;;;10.37;100.00;100268.44;4984256;28;20034;-76
2022/11/08 07:56:54;;;;;;;9.17;3.03;;;;;;;10.70;100.00;100269.16;4980758;28;20840;-77
2022/11/08 07:59:20;;;;;;;8.40;3.33;;;;;;;10.72;100.00;100244.91;4981856;28;20034;-76
2022/11/08 08:01:45;;;;;;;11.07;2.60;;;;;;;10.86;100.00;100233.47;4980282;28;20715;-76
2022/11/08 08:04:11;;;;;;;14.30;3.73;;;;;;;10.76;100.00;100225.72;4976078;28;20958;-78
2022/11/08 08:06:37;;;;;;;7.07;2.30;;;;;;;10.98;100.00;100225.91;4980201;28;20784;-79
2022/11/08 08:09:02;;;;;;;11.75;3.10;;;;;;;10.85;100.00;100205.13;4980893;28;20031;-77
2022/11/08 08:11:28;;;;;;;8.85;2.65;;;;;;;10.78;100.00;100186.31;4983336;28;20026;-76
2022/11/08 08:13:55;;;;;;;8.47;2.77;;;;;;;10.84;100.00;100195.47;4981044;28;20039;-76
2022/11/08 08:16:21;;;;;;;8.60;3.30;;;;;;;10.76;100.00;100188.31;4974609;28;20031;-76
2022/11/08 08:18:48;;;;;;;6.88;3.15;;;;;;;10.67;100.00;100183.22;4976921;28;20037;-77
2022/11/08 08:21:14;;;;;;;11.75;2.88;;;;;;;10.70;100.00;100188.19;4979641;28;20022;-76
2022/11/08 08:23:39;;;;;;;13.90;2.97;;;;;;;10.65;100.00;100191.44;4977005;28;20038;-76
2022/11/08 08:26:04;;;;;;;9.83;3.13;;;;;;;10.72;100.00;100203.06;4974348;28;20538;-76
2022/11/08 08:28:30;;;;;;;14.90;3.10;;;;;;;10.61;100.00;100197.28;4967798;28;20477;-76
2022/11/08 08:30:55;;;;;;;10.20;2.73;;;;;;;10.57;100.00;100189.63;4979323;28;20034;-75
2022/11/08 08:33:20;;;;;;;9.97;2.83;;;;;;;10.58;100.00;100193.09;4978265;28;20034;-76
2022/11/08 08:35:46;;;;;;;5.63;2.73;;;;;;;10.49;100.00;100197.69;4975655;28;20038;-76
2022/11/08 08:38:12;;;;;;;5.80;2.70;;;;;;;10.63;100.00;100209.44;4974585;28;20045;-77
2022/11/08 08:40:38;;;;;;;22.30;4.40;;;;;;;10.67;100.00;100205.41;4976607;28;20037;-76
2022/11/08 08:43:04;;;;;;;11.68;3.47;;;;;;;10.77;100.00;100215.88;4979138;28;20132;-76
2022/11/08 08:45:31;;;;;;;19.75;3.58;;;;;;;10.78;100.00;100214.84;4977597;28;20031;-77
2022/11/08 08:47:58;;;;;;;13.38;3.05;;;;;;;10.85;100.00;100205.13;4975367;28;20062;-77
2022/11/08 08:50:25;;;;;;;7.18;2.53;;;;;;;10.83;100.00;100203.66;4965125;28;20411;-76
2022/11/08 08:52:50;;;;;;;6.70;3.17;;;;;;;10.97;100.00;100187.66;4967725;28;20031;-77
2022/11/08 08:55:16;;;;;;;8.10;2.77;;;;;;;10.93;100.00;100182.88;4977398;28;20502;-76
2022/11/08 08:57:44;;;;;;;14.88;3.65;;;;;;;10.94;100.00;100179.19;4967407;28;20085;-77
2022/11/08 09:00:10;;;;;;;8.30;2.70;;;;;;;11.04;100.00;100174.44;4978872;28;20041;-75
2022/11/08 09:02:35;;;;;;;10.20;3.47;;;;;;;11.04;100.00;100152.25;4976692;28;20034;-77
2022/11/08 09:05:00;;;;;;;10.10;2.47;;;;;;;11.12;100.00;100145.00;4959157;28;20035;-76
2022/11/08 09:07:26;;;;;;;4.60;2.50;;;;;;;11.23;100.00;100135.69;4979865;28;20022;-76
2022/11/08 09:09:51;;;;;;;13.30;2.87;;;;;;;11.55;100.00;100133.72;4969333;28;20058;-77
2022/11/08 09:12:16;;;;;;;6.10;2.73;;;;;;;11.78;100.00;100088.16;4977451;28;20487;-78
2022/11/08 09:14:42;;;;;;;7.97;2.53;;;;;;;12.39;100.00;100061.91;4975651;28;20459;-76
2022/11/08 09:17:07;;;;;;;5.77;2.97;;;;;;;13.37;100.00;99997.75;4976728;28;20038;-76
2022/11/08 09:19:32;;;;;;;4.57;2.57;;;;;;;13.59;100.00;99875.09;4978301;28;20118;-76
2022/11/08 09:21:58;;;;;;;9.00;2.97;;;;;;;13.25;100.00;99723.22;4975359;28;20038;-76
2022/11/08 09:24:23;;;;;;;4.30;2.63;;;;;;;13.40;100.00;99715.84;4977407;28;20092;-76
2022/11/08 09:26:48;;;;;;;8.10;2.63;;;;;;;13.01;100.00;99685.25;4974378;28;20042;-75
2022/11/08 09:29:14;;;;;;;12.47;2.60;;;;;;;12.97;100.00;99702.78;4975444;28;20030;-75
2022/11/08 09:31:39;;;;;;;5.63;2.57;;;;;;;13.14;100.00;99710.44;4958624;28;20038;-76
2022/11/08 09:34:04;;;;;;;8.30;3.30;;;;;;;13.67;100.00;99764.09;4976842;28;20561;-75
2022/11/08 09:36:30;;;;;;;4.10;1.93;;;;;;;13.28;100.00;99645.13;4980047;28;20064;-75
2022/11/08 09:38:55;;;;;;;9.53;2.97;;;;;;;13.26;100.00;99613.13;4962540;28;20039;-77
2022/11/08 09:41:39;;;;;;;8.93;2.23;;;;;;;13.14;100.00;99613.97;4979895;28;20192;-75
2022/11/08 09:44:21;;;;;;;9.23;2.60;;;;;;;13.36;100.00;99682.41;4982235;28;20061;-75
2022/11/08 09:46:56;;;;;;;4.82;2.40;;;;;;;13.30;100.00;99705.53;4965253;28;20213;-78
2022/11/08 09:49:28;;;;;;;7.20;2.50;;;;;;;13.66;100.00;99657.84;4966066;28;20050;-77
2022/11/08 09:51:54;;;;;;;10.13;2.78;;;;;;;13.90;100.00;99614.25;4981583;28;20031;-75
2022/11/08 09:54:25;;;;;;;12.63;2.92;;;;;;;14.25;100.00;99538.72;4981599;28;20042;-77
2022/11/08 09:56:54;;;;;;;4.80;2.17;;;;;;;14.09;100.00;99440.78;4978397;28;20121;-76
2022/11/08 09:59:42;;;;;;;6.43;1.83;;;;;;;13.59;100.00;99429.09;4966192;28;20023;-76
2022/11/08 10:02:15;;;;;;;9.65;3.15;;;;;;;13.72;100.00;99423.69;4991908;28;20480;-78
2022/11/08 10:04:40;;;;;;;5.47;2.40;;;;;;;13.91;100.00;99452.25;4965687;28;20037;-77
2022/11/08 10:07:27;;;;;;;6.93;2.53;;;;;;;13.39;100.00;99400.53;4970054;28;20030;-79
2022/11/08 10:09:58;;;;;;;7.72;2.50;;;;;;;13.50;100.00;99434.69;4980130;28;20289;-78
2022/11/08 10:12:57;;;;;;;5.95;2.13;;;;;;;13.22;100.00;99435.00;4958994;28;20031;-77
2022/11/08 10:15:55;;;;;;;3.45;2.10;;;;;;;12.93;100.00;99424.81;4979009;28;20507;-77
2022/11/08 10:18:30;;;;;;;8.40;2.00;;;;;;;13.00;100.00;99487.22;4981011;28;20069;-77
2022/11/08 10:21:19;;;;;;;5.57;2.10;;;;;;;13.14;100.00;99537.06;4982098;28;20506;-77
2022/11/08 10:24:01;;;;;;;9.82;2.15;;;;;;;13.54;100.00;99544.22;4981832;28;20506;-78
2022/11/08 10:26:33;;;;;;;9.35;2.03;;;;;;;13.36;100.00;99478.69;4967730;28;20482;-79
2022/11/08 10:29:21;;;;;;;5.10;1.60;;;;;;;13.27;100.00;99507.59;4983334;28;20031;-78
2022/11/08 10:31:50;;;;;;;6.25;2.58;;;;;;;13.61;100.00;99539.66;4965605;28;20030;-78
2022/11/08 10:34:21;;;;;;;5.15;1.85;;;;;;;13.44;100.00;99521.38;4983571;28;20520;-77
2022/11/08 10:36:49;;;;;;;6.28;1.73;;;;;;;13.22;100.00;99493.13;4981204;28;20353;-79
2022/11/08 10:39:36;;;;;;;3.65;1.85;;;;;;;13.25;100.00;99479.31;4983451;28;20034;-77
2022/11/08 10:42:45;;;;;;;7.78;2.10;;;;;;;13.62;100.00;99487.66;4982612;28;20035;-78
2022/11/08 10:45:11;;;;;;;5.70;2.00;;;;;;;13.41;100.00;99390.41;4997380;28;20456;-76
2022/11/08 10:47:36;;;;;;;7.38;2.47;;;;;;;13.76;100.00;99424.88;4982437;28;20174;-79
2022/11/08 10:50:33;;;;;;;9.93;2.33;;;;;;;13.50;100.00;99374.91;4982441;28;20038;-77
2022/11/08 10:53:00;;;;;;;5.93;2.15;;;;;;;13.46;100.00;99358.44;4983452;28;20109;-76
2022/11/08 10:55:29;;;;;;;6.40;2.10;;;;;;;13.73;100.00;99350.22;4984166;28;20277;-77
2022/11/08 10:57:55;;;;;;;7.75;1.80;;;;;;;14.07;100.00;99254.16;4965038;28;20035;-76
2022/11/08 11:00:22;;;;;;;6.05;1.58;;;;;;;14.08;100.00;99169.94;4967109;28;20029;-76
2022/11/08 11:02:50;;;;;;;;;;;;;;;13.41;100.00;99157.19;4969220;28;20640;-77
2022/11/08 11:05:16;;;;;;;3.33;1.80;;;;;;;13.69;100.00;99217.59;4983380;28;19914;-77
2022/11/08 11:07:55;;;;;;;;;;;;;;;13.91;100.00;99208.09;4982423;28;20038;-77
2022/11/08 11:10:30;;;;;;;9.88;1.90;;;;;;;13.90;100.00;99163.53;4983006;28;20222;-77
2022/11/08 11:13:03;;;;;;;6.20;1.92;;;;;;;14.11;100.00;99215.94;4983979;28;20484;-77
2022/11/08 11:15:33;;;;;;;4.18;2.10;;;;;;;14.42;100.00;99187.31;4983847;28;20066;-77
2022/11/08 11:17:58;;;;;;;6.07;1.70;;;;;;;14.10;100.00;99119.56;4993744;28;20117;-77
2022/11/08 11:20:25;;;;;;;6.27;1.77;;;;;;;14.04;100.00;99141.91;4967644;28;20133;-77
2022/11/08 11:22:52;;;;;;;8.75;3.33;;;;;;;14.04;100.00;99141.91;4982025;28;20077;-77
2022/11/08 11:25:22;;;;;;;9.02;4.13;;;;;;;14.33;100.00;99184.09;4969147;28;20026;-77
2022/11/08 11:27:53;;;;;;;7.63;2.72;;;;;;;14.48;100.00;99127.31;4984956;28;20038;-77
2022/11/08 11:30:33;;;;;;;6.65;2.83;;;;;;;14.02;100.00;99122.53;4962854;28;20031;-76
2022/11/08 11:33:07;;;;;;;7.07;2.00;;;;;;;13.83;100.00;99141.31;4984159;28;20073;-76
2022/11/08 11:35:40;;;;;;;6.13;2.20;;;;;;;14.05;100.00;99208.78;4982619;28;20034;-76
2022/11/08 11:38:13;;;;;;;5.75;1.73;;;;;;;14.61;100.00;99184.59;4984197;28;20438;-77